sensor_id;sensor_type;location;lat;lon;timestamp;P1;durP1;ratioP1;P2;durP2;ratioP2
30149;SDS011;16962;48.646;9.026;2023-11-21T00:00:50;20.27;;;5.45;;
30149;SDS011;16962;48.646;9.026;2023-11-21T00:03:38;28.02;;;6.60;;
30149;SDS011;16962;48.646;9.026;2023-11-21T00:06:25;16.05;;;5.70;;
30149;SDS011;16962;48.646;9.026;2023-11-21T00:09:14;17.63;;;5.38;;
30149;SDS011;16962;48.646;9.026;2023-11-21T00:12:02;23.70;;;5.57;;
30149;SDS011;16962;48.646;9.026;2023-11-21T00:14:52;14.65;;;5.22;;
30149;SDS011;16962;48.646;9.026;2023-11-21T00:17:44;31.88;;;5.95;;
30149;SDS011;16962;48.646;9.026;2023-11-21T00:20:31;14.80;;;4.97;;
30149;SDS011;16962;48.646;9.026;2023-11-21T00:23:21;22.02;;;5.43;;
30149;SDS011;16962;48.646;9.026;2023-11-21T00:26:10;18.90;;;5.30;;
30149;SDS011;16962;48.646;9.026;2023-11-21T00:29:00;22.90;;;6.07;;
30149;SDS011;16962;48.646;9.026;2023-11-21T00:31:48;23.75;;;6.97;;
30149;SDS011;16962;48.646;9.026;2023-11-21T00:34:35;20.45;;;7.85;;
30149;SDS011;16962;48.646;9.026;2023-11-21T00:37:23;19.02;;;5.22;;
30149;SDS011;16962;48.646;9.026;2023-11-21T00:40:10;15.60;;;4.70;;
30149;SDS011;16962;48.646;9.026;2023-11-21T00:42:58;11.02;;;4.47;;
30149;SDS011;16962;48.646;9.026;2023-11-21T00:45:47;11.88;;;4.03;;
30149;SDS011;16962;48.646;9.026;2023-11-21T00:48:37;16.27;;;3.90;;
30149;SDS011;16962;48.646;9.026;2023-11-21T00:51:24;12.73;;;4.47;;
30149;SDS011;16962;48.646;9.026;2023-11-21T00:54:12;16.10;;;4.20;;
30149;SDS011;16962;48.646;9.026;2023-11-21T00:57:03;17.08;;;3.92;;
30149;SDS011;16962;48.646;9.026;2023-11-21T00:59:55;15.10;;;3.67;;
30149;SDS011;16962;48.646;9.026;2023-11-21T01:02:45;15.73;;;4.00;;
30149;SDS011;16962;48.646;9.026;2023-11-21T01:05:32;10.50;;;3.25;;
30149;SDS011;16962;48.646;9.026;2023-11-21T01:08:20;10.82;;;3.65;;
30149;SDS011;16962;48.646;9.026;2023-11-21T01:11:08;9.88;;;3.28;;
30149;SDS011;16962;48.646;9.026;2023-11-21T01:13:57;7.20;;;3.03;;
30149;SDS011;16962;48.646;9.026;2023-11-21T01:16:44;13.13;;;3.40;;
30149;SDS011;16962;48.646;9.026;2023-11-21T01:19:32;7.80;;;3.10;;
30149;SDS011;16962;48.646;9.026;2023-11-21T01:22:22;12.05;;;3.08;;
30149;SDS011;16962;48.646;9.026;2023-11-21T01:25:13;9.55;;;2.58;;
30149;SDS011;16962;48.646;9.026;2023-11-21T01:28:01;6.13;;;2.75;;
30149;SDS011;16962;48.646;9.026;2023-11-21T01:30:48;8.73;;;2.53;;
30149;SDS011;16962;48.646;9.026;2023-11-21T01:33:36;9.05;;;2.63;;
30149;SDS011;16962;48.646;9.026;2023-11-21T01:36:23;10.77;;;3.33;;
30149;SDS011;16962;48.646;9.026;2023-11-21T01:39:18;8.82;;;3.45;;
30149;SDS011;16962;48.646;9.026;2023-11-21T01:42:10;6.75;;;2.72;;
30149;SDS011;16962;48.646;9.026;2023-11-21T01:44:59;5.63;;;2.05;;
30149;SDS011;16962;48.646;9.026;2023-11-21T01:47:52;7.73;;;2.67;;
30149;SDS011;16962;48.646;9.026;2023-11-21T01:50:43;7.63;;;3.03;;
30149;SDS011;16962;48.646;9.026;2023-11-21T01:53:31;9.13;;;2.78;;
30149;SDS011;16962;48.646;9.026;2023-11-21T01:56:19;7.00;;;2.42;;
30149;SDS011;16962;48.646;9.026;2023-11-21T01:59:06;7.45;;;2.28;;
30149;SDS011;16962;48.646;9.026;2023-11-21T02:01:56;8.85;;;2.78;;
30149;SDS011;16962;48.646;9.026;2023-11-21T02:04:43;6.40;;;2.40;;
30149;SDS011;16962;48.646;9.026;2023-11-21T02:07:31;5.32;;;2.58;;
30149;SDS011;16962;48.646;9.026;2023-11-21T02:10:19;4.30;;;2.80;;
30149;SDS011;16962;48.646;9.026;2023-11-21T02:13:10;11.25;;;2.67;;
30149;SDS011;16962;48.646;9.026;2023-11-21T02:15:57;7.82;;;2.22;;
30149;SDS011;16962;48.646;9.026;2023-11-21T02:18:45;11.57;;;2.40;;
30149;SDS011;16962;48.646;9.026;2023-11-21T02:21:35;8.13;;;2.63;;
30149;SDS011;16962;48.646;9.026;2023-11-21T02:24:29;12.68;;;2.45;;
30149;SDS011;16962;48.646;9.026;2023-11-21T02:27:16;8.70;;;2.22;;
30149;SDS011;16962;48.646;9.026;2023-11-21T02:30:08;7.05;;;1.80;;
30149;SDS011;16962;48.646;9.026;2023-11-21T02:33:00;6.15;;;2.03;;
30149;SDS011;16962;48.646;9.026;2023-11-21T02:35:48;5.65;;;2.22;;
30149;SDS011;16962;48.646;9.026;2023-11-21T02:38:35;4.30;;;1.77;;
30149;SDS011;16962;48.646;9.026;2023-11-21T02:41:22;3.42;;;1.95;;
30149;SDS011;16962;48.646;9.026;2023-11-21T02:44:10;6.05;;;2.08;;
30149;SDS011;16962;48.646;9.026;2023-11-21T02:46:57;11.40;;;2.40;;
30149;SDS011;16962;48.646;9.026;2023-11-21T02:49:49;9.60;;;1.92;;
30149;SDS011;16962;48.646;9.026;2023-11-21T02:52:38;7.50;;;1.85;;
30149;SDS011;16962;48.646;9.026;2023-11-21T02:55:29;4.70;;;2.03;;
30149;SDS011;16962;48.646;9.026;2023-11-21T02:58:17;1.98;;;1.40;;
30149;SDS011;16962;48.646;9.026;2023-11-21T03:01:04;5.00;;;1.92;;
30149;SDS011;16962;48.646;9.026;2023-11-21T03:03:52;5.25;;;1.90;;
30149;SDS011;16962;48.646;9.026;2023-11-21T03:06:42;5.07;;;1.63;;
30149;SDS011;16962;48.646;9.026;2023-11-21T03:09:34;7.68;;;1.70;;
30149;SDS011;16962;48.646;9.026;2023-11-21T03:12:22;8.63;;;2.15;;
30149;SDS011;16962;48.646;9.026;2023-11-21T03:15:09;3.92;;;1.80;;
30149;SDS011;16962;48.646;9.026;2023-11-21T03:17:56;4.40;;;1.55;;
30149;SDS011;16962;48.646;9.026;2023-11-21T03:20:44;6.32;;;1.65;;
30149;SDS011;16962;48.646;9.026;2023-11-21T03:23:33;5.07;;;1.52;;
30149;SDS011;16962;48.646;9.026;2023-11-21T03:26:21;5.50;;;1.67;;
30149;SDS011;16962;48.646;9.026;2023-11-21T03:29:09;4.55;;;1.35;;
30149;SDS011;16962;48.646;9.026;2023-11-21T03:31:56;3.97;;;1.52;;
30149;SDS011;16962;48.646;9.026;2023-11-21T03:34:53;7.75;;;1.80;;
30149;SDS011;16962;48.646;9.026;2023-11-21T03:37:42;2.97;;;1.42;;
30149;SDS011;16962;48.646;9.026;2023-11-21T03:40:30;3.33;;;1.45;;
30149;SDS011;16962;48.646;9.026;2023-11-21T03:43:18;5.07;;;1.33;;
30149;SDS011;16962;48.646;9.026;2023-11-21T03:46:05;5.18;;;1.48;;
30149;SDS011;16962;48.646;9.026;2023-11-21T03:48:53;3.60;;;1.48;;
30149;SDS011;16962;48.646;9.026;2023-11-21T03:51:42;4.38;;;1.52;;
30149;SDS011;16962;48.646;9.026;2023-11-21T03:54:29;5.15;;;1.73;;
30149;SDS011;16962;48.646;9.026;2023-11-21T03:57:16;6.32;;;1.63;;
30149;SDS011;16962;48.646;9.026;2023-11-21T04:00:04;6.43;;;1.75;;
30149;SDS011;16962;48.646;9.026;2023-11-21T04:02:55;5.65;;;1.60;;
30149;SDS011;16962;48.646;9.026;2023-11-21T04:05:45;5.45;;;1.38;;
30149;SDS011;16962;48.646;9.026;2023-11-21T04:08:33;6.40;;;1.45;;
30149;SDS011;16962;48.646;9.026;2023-11-21T04:11:21;1.88;;;1.40;;
30149;SDS011;16962;48.646;9.026;2023-11-21T04:14:08;4.65;;;1.30;;
30149;SDS011;16962;48.646;9.026;2023-11-21T04:16:56;3.70;;;1.52;;
30149;SDS011;16962;48.646;9.026;2023-11-21T04:19:43;2.60;;;1.40;;
30149;SDS011;16962;48.646;9.026;2023-11-21T04:22:33;6.15;;;1.90;;
30149;SDS011;16962;48.646;9.026;2023-11-21T04:25:20;2.42;;;1.40;;
30149;SDS011;16962;48.646;9.026;2023-11-21T04:28:09;5.45;;;1.92;;
30149;SDS011;16962;48.646;9.026;2023-11-21T04:30:56;1.40;;;1.23;;
30149;SDS011;16962;48.646;9.026;2023-11-21T04:33:44;7.00;;;1.77;;
30149;SDS011;16962;48.646;9.026;2023-11-21T04:36:31;4.82;;;2.03;;
30149;SDS011;16962;48.646;9.026;2023-11-21T04:39:18;5.72;;;1.80;;
30149;SDS011;16962;48.646;9.026;2023-11-21T04:42:06;2.33;;;1.85;;
30149;SDS011;16962;48.646;9.026;2023-11-21T04:44:53;3.30;;;1.30;;
30149;SDS011;16962;48.646;9.026;2023-11-21T04:47:41;6.95;;;1.55;;
30149;SDS011;16962;48.646;9.026;2023-11-21T04:50:31;3.92;;;1.40;;
30149;SDS011;16962;48.646;9.026;2023-11-21T04:53:19;3.30;;;1.30;;
30149;SDS011;16962;48.646;9.026;2023-11-21T04:56:08;3.03;;;1.30;;
30149;SDS011;16962;48.646;9.026;2023-11-21T04:58:56;1.45;;;1.10;;
30149;SDS011;16962;48.646;9.026;2023-11-21T05:01:43;8.52;;;2.03;;
30149;SDS011;16962;48.646;9.026;2023-11-21T05:04:30;4.78;;;1.63;;
30149;SDS011;16962;48.646;9.026;2023-11-21T05:07:18;5.43;;;1.60;;
30149;SDS011;16962;48.646;9.026;2023-11-21T05:10:05;3.03;;;1.15;;
30149;SDS011;16962;48.646;9.026;2023-11-21T05:12:57;3.83;;;1.70;;
30149;SDS011;16962;48.646;9.026;2023-11-21T05:15:45;3.50;;;1.98;;
30149;SDS011;16962;48.646;9.026;2023-11-21T05:18:32;4.75;;;1.90;;
30149;SDS011;16962;48.646;9.026;2023-11-21T05:21:21;4.80;;;2.22;;
30149;SDS011;16962;48.646;9.026;2023-11-21T05:24:10;2.53;;;2.20;;
30149;SDS011;16962;48.646;9.026;2023-11-21T05:26:58;6.15;;;2.45;;
30149;SDS011;16962;48.646;9.026;2023-11-21T05:29:45;3.58;;;2.15;;
30149;SDS011;16962;48.646;9.026;2023-11-21T05:32:32;3.05;;;2.40;;
30149;SDS011;16962;48.646;9.026;2023-11-21T05:35:21;2.63;;;2.30;;
30149;SDS011;16962;48.646;9.026;2023-11-21T05:38:08;3.53;;;2.55;;
30149;SDS011;16962;48.646;9.026;2023-11-21T05:40:55;7.05;;;2.53;;
30149;SDS011;16962;48.646;9.026;2023-11-21T05:43:42;3.47;;;2.53;;
30149;SDS011;16962;48.646;9.026;2023-11-21T05:46:32;3.83;;;2.72;;
30149;SDS011;16962;48.646;9.026;2023-11-21T05:49:20;10.43;;;3.20;;
30149;SDS011;16962;48.646;9.026;2023-11-21T05:52:10;5.50;;;3.63;;
30149;SDS011;16962;48.646;9.026;2023-11-21T05:54:57;8.10;;;3.13;;
30149;SDS011;16962;48.646;9.026;2023-11-21T05:57:44;7.72;;;3.00;;
30149;SDS011;16962;48.646;9.026;2023-11-21T06:00:31;7.55;;;3.78;;
30149;SDS011;16962;48.646;9.026;2023-11-21T06:03:19;6.68;;;3.10;;
30149;SDS011;16962;48.646;9.026;2023-11-21T06:06:07;4.50;;;3.58;;
30149;SDS011;16962;48.646;9.026;2023-11-21T06:08:54;7.10;;;4.20;;
30149;SDS011;16962;48.646;9.026;2023-11-21T06:11:44;9.43;;;5.45;;
30149;SDS011;16962;48.646;9.026;2023-11-21T06:14:31;10.70;;;4.30;;
30149;SDS011;16962;48.646;9.026;2023-11-21T06:17:21;6.03;;;4.47;;
30149;SDS011;16962;48.646;9.026;2023-11-21T06:20:11;9.90;;;5.22;;
30149;SDS011;16962;48.646;9.026;2023-11-21T06:23:01;10.68;;;5.30;;
30149;SDS011;16962;48.646;9.026;2023-11-21T06:25:50;7.05;;;5.03;;
30149;SDS011;16962;48.646;9.026;2023-11-21T06:28:38;9.27;;;6.65;;
30149;SDS011;16962;48.646;9.026;2023-11-21T06:31:25;8.88;;;5.90;;
30149;SDS011;16962;48.646;9.026;2023-11-21T06:34:12;9.30;;;6.80;;
30149;SDS011;16962;48.646;9.026;2023-11-21T06:37:02;9.82;;;7.07;;
30149;SDS011;16962;48.646;9.026;2023-11-21T06:39:49;11.18;;;7.50;;
30149;SDS011;16962;48.646;9.026;2023-11-21T06:42:38;11.85;;;7.13;;
30149;SDS011;16962;48.646;9.026;2023-11-21T06:45:26;8.40;;;7.50;;
30149;SDS011;16962;48.646;9.026;2023-11-21T06:48:13;12.63;;;7.80;;
30149;SDS011;16962;48.646;9.026;2023-11-21T06:51:01;11.55;;;7.85;;
30149;SDS011;16962;48.646;9.026;2023-11-21T06:53:48;14.55;;;8.30;;
30149;SDS011;16962;48.646;9.026;2023-11-21T06:56:41;11.32;;;7.72;;
30149;SDS011;16962;48.646;9.026;2023-11-21T06:59:28;10.20;;;7.32;;
30149;SDS011;16962;48.646;9.026;2023-11-21T07:02:17;11.20;;;6.85;;
30149;SDS011;16962;48.646;9.026;2023-11-21T07:05:08;11.27;;;7.00;;
30149;SDS011;16962;48.646;9.026;2023-11-21T07:08:03;8.13;;;6.03;;
30149;SDS011;16962;48.646;9.026;2023-11-21T07:10:51;12.93;;;6.18;;
30149;SDS011;16962;48.646;9.026;2023-11-21T07:13:41;12.40;;;7.32;;
30149;SDS011;16962;48.646;9.026;2023-11-21T07:16:31;14.57;;;7.93;;
30149;SDS011;16962;48.646;9.026;2023-11-21T07:19:18;14.05;;;7.55;;
30149;SDS011;16962;48.646;9.026;2023-11-21T07:22:06;10.35;;;7.03;;
30149;SDS011;16962;48.646;9.026;2023-11-21T07:24:55;10.20;;;6.85;;
30149;SDS011;16962;48.646;9.026;2023-11-21T07:30:35;9.13;;;5.90;;
30149;SDS011;16962;48.646;9.026;2023-11-21T07:33:25;11.07;;;6.38;;
30149;SDS011;16962;48.646;9.026;2023-11-21T07:36:14;11.68;;;5.85;;
30149;SDS011;16962;48.646;9.026;2023-11-21T07:39:06;10.63;;;6.18;;
30149;SDS011;16962;48.646;9.026;2023-11-21T07:41:53;6.93;;;5.40;;
30149;SDS011;16962;48.646;9.026;2023-11-21T07:44:46;9.52;;;6.32;;
30149;SDS011;16962;48.646;9.026;2023-11-21T07:47:35;8.13;;;4.72;;
30149;SDS011;16962;48.646;9.026;2023-11-21T07:50:24;5.82;;;4.47;;
30149;SDS011;16962;48.646;9.026;2023-11-21T07:53:13;7.32;;;4.80;;
30149;SDS011;16962;48.646;9.026;2023-11-21T07:56:04;8.98;;;4.00;;
30149;SDS011;16962;48.646;9.026;2023-11-21T07:58:56;8.48;;;3.25;;
30149;SDS011;16962;48.646;9.026;2023-11-21T08:01:49;4.10;;;2.85;;
30149;SDS011;16962;48.646;9.026;2023-11-21T08:04:37;3.45;;;2.83;;
30149;SDS011;16962;48.646;9.026;2023-11-21T08:07:24;5.10;;;2.65;;
30149;SDS011;16962;48.646;9.026;2023-11-21T08:10:12;5.32;;;2.78;;
30149;SDS011;16962;48.646;9.026;2023-11-21T08:13:01;5.20;;;2.65;;
30149;SDS011;16962;48.646;9.026;2023-11-21T08:15:49;5.55;;;2.30;;
30149;SDS011;16962;48.646;9.026;2023-11-21T08:18:37;5.45;;;2.85;;
30149;SDS011;16962;48.646;9.026;2023-11-21T08:21:26;2.95;;;2.38;;
30149;SDS011;16962;48.646;9.026;2023-11-21T08:24:16;5.10;;;2.30;;
30149;SDS011;16962;48.646;9.026;2023-11-21T08:27:03;4.65;;;2.22;;
30149;SDS011;16962;48.646;9.026;2023-11-21T08:29:52;4.05;;;2.42;;
30149;SDS011;16962;48.646;9.026;2023-11-21T08:32:43;4.03;;;2.40;;
30149;SDS011;16962;48.646;9.026;2023-11-21T08:35:30;2.95;;;2.65;;
30149;SDS011;16962;48.646;9.026;2023-11-21T08:38:20;5.28;;;3.05;;
30149;SDS011;16962;48.646;9.026;2023-11-21T08:41:11;6.03;;;2.20;;
30149;SDS011;16962;48.646;9.026;2023-11-21T08:44:02;3.05;;;1.92;;
30149;SDS011;16962;48.646;9.026;2023-11-21T08:46:55;3.55;;;2.50;;
30149;SDS011;16962;48.646;9.026;2023-11-21T08:49:46;3.67;;;2.38;;
30149;SDS011;16962;48.646;9.026;2023-11-21T08:52:34;3.65;;;2.10;;
30149;SDS011;16962;48.646;9.026;2023-11-21T08:55:21;3.90;;;2.20;;
30149;SDS011;16962;48.646;9.026;2023-11-21T08:58:09;5.07;;;2.30;;
30149;SDS011;16962;48.646;9.026;2023-11-21T09:00:59;1.77;;;1.63;;
30149;SDS011;16962;48.646;9.026;2023-11-21T09:03:46;2.75;;;2.03;;
30149;SDS011;16962;48.646;9.026;2023-11-21T09:06:34;3.83;;;1.98;;
30149;SDS011;16962;48.646;9.026;2023-11-21T09:09:24;3.67;;;1.98;;
30149;SDS011;16962;48.646;9.026;2023-11-21T09:12:12;3.40;;;2.08;;
30149;SDS011;16962;48.646;9.026;2023-11-21T09:15:02;5.43;;;1.88;;
30149;SDS011;16962;48.646;9.026;2023-11-21T09:17:52;2.17;;;1.90;;
30149;SDS011;16962;48.646;9.026;2023-11-21T09:20:39;2.97;;;2.00;;
30149;SDS011;16962;48.646;9.026;2023-11-21T09:23:27;3.65;;;2.20;;
30149;SDS011;16962;48.646;9.026;2023-11-21T09:26:14;6.32;;;1.85;;
30149;SDS011;16962;48.646;9.026;2023-11-21T09:29:02;4.60;;;2.00;;
30149;SDS011;16962;48.646;9.026;2023-11-21T09:31:55;3.45;;;2.10;;
30149;SDS011;16962;48.646;9.026;2023-11-21T09:34:47;2.85;;;2.08;;
30149;SDS011;16962;48.646;9.026;2023-11-21T09:37:38;4.60;;;2.27;;
30149;SDS011;16962;48.646;9.026;2023-11-21T09:40:26;2.95;;;2.15;;
30149;SDS011;16962;48.646;9.026;2023-11-21T09:43:17;4.13;;;2.13;;
30149;SDS011;16962;48.646;9.026;2023-11-21T09:46:05;2.53;;;2.00;;
30149;SDS011;16962;48.646;9.026;2023-11-21T09:48:57;2.55;;;1.95;;
30149;SDS011;16962;48.646;9.026;2023-11-21T09:51:57;3.85;;;2.38;;
30149;SDS011;16962;48.646;9.026;2023-11-21T09:54:50;2.50;;;2.03;;
30149;SDS011;16962;48.646;9.026;2023-11-21T09:57:39;3.20;;;2.15;;
30149;SDS011;16962;48.646;9.026;2023-11-21T10:00:29;6.10;;;2.45;;
30149;SDS011;16962;48.646;9.026;2023-11-21T10:03:19;2.85;;;1.80;;
30149;SDS011;16962;48.646;9.026;2023-11-21T10:06:10;2.47;;;2.00;;
30149;SDS011;16962;48.646;9.026;2023-11-21T10:09:04;22.23;;;11.88;;
30149;SDS011;16962;48.646;9.026;2023-11-21T10:11:59;6.80;;;3.38;;
30149;SDS011;16962;48.646;9.026;2023-11-21T10:14:54;7.75;;;4.55;;
30149;SDS011;16962;48.646;9.026;2023-11-21T10:18:01;3.80;;;2.90;;
30149;SDS011;16962;48.646;9.026;2023-11-21T10:20:52;3.53;;;2.53;;
30149;SDS011;16962;48.646;9.026;2023-11-21T10:26:30;6.68;;;3.35;;
30149;SDS011;16962;48.646;9.026;2023-11-21T10:29:39;8.45;;;3.92;;
30149;SDS011;16962;48.646;9.026;2023-11-21T10:32:31;7.22;;;4.32;;
30149;SDS011;16962;48.646;9.026;2023-11-21T10:35:19;6.65;;;4.47;;
30149;SDS011;16962;48.646;9.026;2023-11-21T10:38:08;7.30;;;3.55;;
30149;SDS011;16962;48.646;9.026;2023-11-21T10:41:02;7.15;;;3.78;;
30149;SDS011;16962;48.646;9.026;2023-11-21T10:43:52;5.68;;;4.03;;
30149;SDS011;16962;48.646;9.026;2023-11-21T10:46:45;6.35;;;3.83;;
30149;SDS011;16962;48.646;9.026;2023-11-21T10:49:37;7.10;;;3.75;;
30149;SDS011;16962;48.646;9.026;2023-11-21T10:52:27;5.88;;;3.92;;
30149;SDS011;16962;48.646;9.026;2023-11-21T10:55:17;5.90;;;4.43;;
30149;SDS011;16962;48.646;9.026;2023-11-21T10:58:10;7.28;;;4.18;;
30149;SDS011;16962;48.646;9.026;2023-11-21T11:01:01;6.43;;;4.40;;
30149;SDS011;16962;48.646;9.026;2023-11-21T11:03:53;6.35;;;4.20;;
30149;SDS011;16962;48.646;9.026;2023-11-21T11:06:44;7.05;;;4.70;;
30149;SDS011;16962;48.646;9.026;2023-11-21T11:09:42;6.53;;;4.25;;
30149;SDS011;16962;48.646;9.026;2023-11-21T11:12:32;10.75;;;5.68;;
30149;SDS011;16962;48.646;9.026;2023-11-21T11:15:19;5.05;;;4.18;;
30149;SDS011;16962;48.646;9.026;2023-11-21T11:18:09;8.75;;;4.57;;
30149;SDS011;16962;48.646;9.026;2023-11-21T11:21:00;8.30;;;5.32;;
30149;SDS011;16962;48.646;9.026;2023-11-21T11:24:20;9.07;;;4.40;;
30149;SDS011;16962;48.646;9.026;2023-11-21T11:27:52;13.98;;;7.50;;
30149;SDS011;16962;48.646;9.026;2023-11-21T11:33:57;5.35;;;4.43;;
30149;SDS011;16962;48.646;9.026;2023-11-21T11:37:07;5.88;;;3.33;;
30149;SDS011;16962;48.646;9.026;2023-11-21T11:39:57;3.25;;;2.65;;
30149;SDS011;16962;48.646;9.026;2023-11-21T11:42:56;3.72;;;2.90;;
30149;SDS011;16962;48.646;9.026;2023-11-21T11:45:46;3.33;;;2.97;;
30149;SDS011;16962;48.646;9.026;2023-11-21T11:48:38;2.85;;;2.55;;
30149;SDS011;16962;48.646;9.026;2023-11-21T11:51:32;4.30;;;3.38;;
30149;SDS011;16962;48.646;9.026;2023-11-21T11:54:34;6.93;;;3.05;;
30149;SDS011;16962;48.646;9.026;2023-11-21T11:57:24;5.53;;;2.97;;
30149;SDS011;16962;48.646;9.026;2023-11-21T12:03:08;7.60;;;2.78;;
30149;SDS011;16962;48.646;9.026;2023-11-21T12:05:56;5.45;;;3.17;;
30149;SDS011;16962;48.646;9.026;2023-11-21T12:08:47;4.13;;;3.35;;
30149;SDS011;16962;48.646;9.026;2023-11-21T12:11:34;3.63;;;2.90;;
30149;SDS011;16962;48.646;9.026;2023-11-21T12:14:27;4.82;;;3.33;;
30149;SDS011;16962;48.646;9.026;2023-11-21T12:17:19;5.38;;;3.25;;
30149;SDS011;16962;48.646;9.026;2023-11-21T12:20:11;7.65;;;3.72;;
30149;SDS011;16962;48.646;9.026;2023-11-21T12:23:04;4.65;;;3.75;;
30149;SDS011;16962;48.646;9.026;2023-11-21T12:25:52;4.57;;;3.92;;
30149;SDS011;16962;48.646;9.026;2023-11-21T12:28:42;5.10;;;3.60;;
30149;SDS011;16962;48.646;9.026;2023-11-21T12:31:32;5.65;;;4.00;;
30149;SDS011;16962;48.646;9.026;2023-11-21T12:34:22;5.05;;;3.75;;
30149;SDS011;16962;48.646;9.026;2023-11-21T12:37:10;5.65;;;3.60;;
30149;SDS011;16962;48.646;9.026;2023-11-21T12:39:57;6.40;;;3.28;;
30149;SDS011;16962;48.646;9.026;2023-11-21T12:51:07;4.15;;;3.72;;
30149;SDS011;16962;48.646;9.026;2023-11-21T13:51:39;5.72;;;3.38;;
30149;SDS011;16962;48.646;9.026;2023-11-21T13:54:47;5.65;;;4.00;;
30149;SDS011;16962;48.646;9.026;2023-11-21T13:57:34;9.48;;;4.13;;
30149;SDS011;16962;48.646;9.026;2023-11-21T14:00:22;4.53;;;3.75;;
30149;SDS011;16962;48.646;9.026;2023-11-21T14:03:32;6.20;;;3.55;;
30149;SDS011;16962;48.646;9.026;2023-11-21T14:06:39;2.75;;;2.55;;
30149;SDS011;16962;48.646;9.026;2023-11-21T14:09:37;4.03;;;2.88;;
30149;SDS011;16962;48.646;9.026;2023-11-21T14:12:33;3.28;;;2.45;;
30149;SDS011;16962;48.646;9.026;2023-11-21T14:15:27;3.40;;;2.35;;
30149;SDS011;16962;48.646;9.026;2023-11-21T14:18:18;4.97;;;2.22;;
30149;SDS011;16962;48.646;9.026;2023-11-21T14:21:16;2.17;;;1.95;;
30149;SDS011;16962;48.646;9.026;2023-11-21T14:24:06;2.17;;;1.98;;
30149;SDS011;16962;48.646;9.026;2023-11-21T14:26:57;1.88;;;1.73;;
30149;SDS011;16962;48.646;9.026;2023-11-21T14:29:47;1.65;;;1.55;;
30149;SDS011;16962;48.646;9.026;2023-11-21T14:32:38;1.80;;;1.70;;
30149;SDS011;16962;48.646;9.026;2023-11-21T14:35:26;1.90;;;1.80;;
30149;SDS011;16962;48.646;9.026;2023-11-21T14:38:19;2.33;;;1.70;;
30149;SDS011;16962;48.646;9.026;2023-11-21T14:41:07;2.50;;;1.50;;
30149;SDS011;16962;48.646;9.026;2023-11-21T14:43:58;2.72;;;2.00;;
30149;SDS011;16962;48.646;9.026;2023-11-21T14:46:46;2.83;;;2.00;;
30149;SDS011;16962;48.646;9.026;2023-11-21T14:49:37;2.45;;;2.25;;
30149;SDS011;16962;48.646;9.026;2023-11-21T14:52:42;2.55;;;2.10;;
30149;SDS011;16962;48.646;9.026;2023-11-21T14:55:45;3.40;;;2.90;;
30149;SDS011;16962;48.646;9.026;2023-11-21T14:58:38;4.60;;;3.30;;
30149;SDS011;16962;48.646;9.026;2023-11-21T15:01:30;6.38;;;4.20;;
30149;SDS011;16962;48.646;9.026;2023-11-21T15:04:41;6.13;;;4.72;;
30149;SDS011;16962;48.646;9.026;2023-11-21T15:07:49;4.90;;;4.35;;
30149;SDS011;16962;48.646;9.026;2023-11-21T15:10:44;3.85;;;3.53;;
30149;SDS011;16962;48.646;9.026;2023-11-21T15:13:44;6.13;;;4.43;;
30149;SDS011;16962;48.646;9.026;2023-11-21T15:16:35;6.88;;;4.53;;
30149;SDS011;16962;48.646;9.026;2023-11-21T15:19:34;6.13;;;5.05;;
30149;SDS011;16962;48.646;9.026;2023-11-21T15:22:23;6.43;;;4.47;;
30149;SDS011;16962;48.646;9.026;2023-11-21T15:25:14;5.20;;;4.38;;
30149;SDS011;16962;48.646;9.026;2023-11-21T15:28:04;5.97;;;5.18;;
30149;SDS011;16962;48.646;9.026;2023-11-21T15:30:52;5.45;;;4.85;;
30149;SDS011;16962;48.646;9.026;2023-11-21T15:33:44;9.02;;;5.50;;
30149;SDS011;16962;48.646;9.026;2023-11-21T15:36:33;5.93;;;5.20;;
30149;SDS011;16962;48.646;9.026;2023-11-21T15:39:20;6.63;;;5.57;;
30149;SDS011;16962;48.646;9.026;2023-11-21T15:42:19;8.55;;;5.95;;
30149;SDS011;16962;48.646;9.026;2023-11-21T15:45:13;7.07;;;5.72;;
30149;SDS011;16962;48.646;9.026;2023-11-21T15:48:00;8.40;;;6.15;;
30149;SDS011;16962;48.646;9.026;2023-11-21T15:50:55;10.52;;;6.07;;
30149;SDS011;16962;48.646;9.026;2023-11-21T15:53:45;11.40;;;7.55;;
30149;SDS011;16962;48.646;9.026;2023-11-21T15:56:36;10.30;;;8.02;;
30149;SDS011;16962;48.646;9.026;2023-11-21T15:59:25;13.65;;;8.68;;
30149;SDS011;16962;48.646;9.026;2023-11-21T16:02:18;10.55;;;8.18;;
30149;SDS011;16962;48.646;9.026;2023-11-21T16:05:07;11.73;;;9.07;;
30149;SDS011;16962;48.646;9.026;2023-11-21T16:07:55;14.13;;;9.20;;
30149;SDS011;16962;48.646;9.026;2023-11-21T16:10:42;12.20;;;8.40;;
30149;SDS011;16962;48.646;9.026;2023-11-21T16:13:30;19.15;;;10.57;;
30149;SDS011;16962;48.646;9.026;2023-11-21T16:16:21;12.27;;;9.10;;
30149;SDS011;16962;48.646;9.026;2023-11-21T16:19:09;12.65;;;10.20;;
30149;SDS011;16962;48.646;9.026;2023-11-21T16:21:56;15.20;;;9.50;;
30149;SDS011;16962;48.646;9.026;2023-11-21T16:24:44;16.30;;;9.68;;
30149;SDS011;16962;48.646;9.026;2023-11-21T16:27:34;17.52;;;10.75;;
30149;SDS011;16962;48.646;9.026;2023-11-21T16:30:25;15.07;;;10.63;;
30149;SDS011;16962;48.646;9.026;2023-11-21T16:33:13;17.45;;;11.80;;
30149;SDS011;16962;48.646;9.026;2023-11-21T16:36:00;18.08;;;12.73;;
30149;SDS011;16962;48.646;9.026;2023-11-21T16:38:48;16.77;;;11.70;;
30149;SDS011;16962;48.646;9.026;2023-11-21T16:41:35;21.85;;;12.70;;
30149;SDS011;16962;48.646;9.026;2023-11-21T16:44:23;19.55;;;13.27;;
30149;SDS011;16962;48.646;9.026;2023-11-21T16:47:11;24.83;;;13.98;;
30149;SDS011;16962;48.646;9.026;2023-11-21T16:49:59;21.20;;;13.20;;
30149;SDS011;16962;48.646;9.026;2023-11-21T16:52:47;21.95;;;13.50;;
30149;SDS011;16962;48.646;9.026;2023-11-21T16:55:35;26.23;;;16.00;;
30149;SDS011;16962;48.646;9.026;2023-11-21T16:58:25;22.55;;;14.88;;
30149;SDS011;16962;48.646;9.026;2023-11-21T17:01:12;27.17;;;15.43;;
30149;SDS011;16962;48.646;9.026;2023-11-21T17:04:00;27.65;;;15.75;;
30149;SDS011;16962;48.646;9.026;2023-11-21T17:06:49;24.92;;;15.55;;
30149;SDS011;16962;48.646;9.026;2023-11-21T17:09:36;29.95;;;17.20;;
30149;SDS011;16962;48.646;9.026;2023-11-21T17:12:26;27.85;;;15.65;;
30149;SDS011;16962;48.646;9.026;2023-11-21T17:15:14;62.00;;;34.50;;
30149;SDS011;16962;48.646;9.026;2023-11-21T17:18:05;49.53;;;27.00;;
30149;SDS011;16962;48.646;9.026;2023-11-21T17:20:55;31.08;;;17.02;;
30149;SDS011;16962;48.646;9.026;2023-11-21T17:23:42;28.42;;;17.17;;
30149;SDS011;16962;48.646;9.026;2023-11-21T17:26:30;30.15;;;17.13;;
30149;SDS011;16962;48.646;9.026;2023-11-21T17:29:20;31.90;;;17.88;;
30149;SDS011;16962;48.646;9.026;2023-11-21T17:32:08;30.33;;;17.55;;
30149;SDS011;16962;48.646;9.026;2023-11-21T17:34:58;30.52;;;17.90;;
30149;SDS011;16962;48.646;9.026;2023-11-21T17:37:48;32.13;;;18.42;;
30149;SDS011;16962;48.646;9.026;2023-11-21T17:40:35;35.28;;;19.00;;
30149;SDS011;16962;48.646;9.026;2023-11-21T17:43:23;36.67;;;20.10;;
30149;SDS011;16962;48.646;9.026;2023-11-21T17:46:22;51.85;;;26.27;;
30149;SDS011;16962;48.646;9.026;2023-11-21T17:49:12;50.33;;;25.60;;
30149;SDS011;16962;48.646;9.026;2023-11-21T17:51:59;61.03;;;30.88;;
30149;SDS011;16962;48.646;9.026;2023-11-21T17:54:47;71.97;;;33.97;;
30149;SDS011;16962;48.646;9.026;2023-11-21T17:57:34;59.00;;;29.85;;
30149;SDS011;16962;48.646;9.026;2023-11-21T18:00:24;60.80;;;28.95;;
30149;SDS011;16962;48.646;9.026;2023-11-21T18:03:13;42.55;;;23.45;;
30149;SDS011;16962;48.646;9.026;2023-11-21T18:06:01;56.45;;;25.20;;
30149;SDS011;16962;48.646;9.026;2023-11-21T18:08:48;52.25;;;24.88;;
30149;SDS011;16962;48.646;9.026;2023-11-21T18:11:39;48.97;;;22.95;;
30149;SDS011;16962;48.646;9.026;2023-11-21T18:14:28;63.05;;;25.98;;
30149;SDS011;16962;48.646;9.026;2023-11-21T18:17:18;62.25;;;26.95;;